首页
METAR-TAF:

METAR-TAF

机场 :

威斯巴登, 德国

纬度: 50-03N, 经度: 008-20E, 海拔: 140米

当前天气观测

该预报发布于28分钟前的19:56 UTC
风速6节,风向南转西南
温度 4°C
湿度 70%
气压 1015 hPa
能见度10公里或以上
少量云层高于6000英尺

METAR: ETOU 291956Z 21006KT 9999 FEW060 04/M01 A2996 RMK A02A SLPNO WND DATA ESTMD ALSTG ESTMD

时间: 21:24 (20:24 UTC)

预报

该预报发布于24分钟前的20:00 UTC
预报有效从29日的 20点(UTC)到 31日的 02点(UTC)
风速9节,风向西南
能见度10公里或以上
散云层高于3000英尺
成为
从 30日的 04点(UTC)到 30日的 05点(UTC)
风速9节,风向西南
能見度: 8000
多云层高于1000英尺
小雨
成为
从 30日的 10点(UTC)到 30日的 11点(UTC)
风速6节,风向南转西南
能见度10公里或以上
阴天层高于1400英尺
成为
从 30日的 16点(UTC)到 30日的 17点(UTC)
风速10节,风向,有时为15节阵风
能見度: 3004
阴天层高于900英尺
小雨

TAF: ETOU 292000Z 2920/3102 22009KT 9999 SCT030 QNH2998INS BECMG 3004/3005 22009KT 8000 -RA BKN010 620105 QNH2992INS BECMG 3010/3011 21006KT 9999 NSW OVC014 QNH2987INS BECMG 3016/3017 19010G15KT 8000 -RA OVC009 QNH2982INS TX09/3012Z TN03/3004Z LAST NO AMDS AFT 2920 NEXT 3004

超过4000个机场的气象观测和天气预报(METAR&TAF报告)。

可查询的气象台以黄色和红色小点在地图上表示。

将鼠标移到小点上方,可查看气象台名称。

然后点击查看天气观测和预报。

如需切换地图:点击带黑十字的绿色按钮放大地图;点击带横线的绿色按钮缩小地图;或者点击绿色箭头查看邻近地区的地图。


METAR-TAF: